Ruskin, NE (68974)

08:15 AM CST die 25o January, anno 2015 (GMT -0600)
North Superior | Change Station
CLOSE
Current Station
Personal Weather Stations
Location: Superior, NE
Elevation: 1617 ft
Nearby Weather Stations

Elev 1617 ft 40.03 °N, 98.07 °W | Updated 1 second ago

Aequaliter Nubila
Aequaliter Nubila
41.8 °F
Feels Like 34 °F
N
17.0
Ventus Variabilis Ventus from Inter Aquilonem et Zephyrus
Gusts 29.0 mph

Hodie
High -- | Low -- °F
--% Chance of Precip.
Yesterday
High -- | Low -- °F
Precip. -- in
7:46 AM 5:41 PM
Waxing Crescent, 32% visible
Pressio 29.89 in
Visibilitas 10.0 milia passuum
Clouds Plerumque Nubila 2400 ft
Aequaliter Nubila 3600 ft
Frigus Venti 34 °F
Frigus in quo Ros apparet 32 °F
Umor 68%
Rainfall 0.00 in
Snow Depth Not available.
UV 0 out of 12
Pollen 1.90 out of 12
Air Quality Not available.
Flu Activity Not available.
METAR KHJH 251355Z AUTO 34017G23KT 10SM BKN024 OVC036 05/00 A2989 RMK AO2 T00451001

More Conditions Fewer Conditions

Pressio 29.89 in
Visibilitas 10.0 milia passuum
Clouds Plerumque Nubila 2400 ft
Aequaliter Nubila 3600 ft
Frigus Venti 34 °F
Frigus in quo Ros apparet 32 °F
Umor 68%
Rainfall 0.00 in
Snow Depth Not available.
UV 0 out of 12
Pollen 1.90 out of 12
Air Quality Not available.
Flu Activity Not available.
METAR KHJH 251355Z AUTO 34017G23KT 10SM BKN024 OVC036 05/00 A2989 RMK AO2 T00451001

More Conditions Fewer Conditions

10-Day Weather Forecast

Almanac

Astronomy

Jan. 25, 2015 Rise Set
Actual Time
Civil Twilight
Nautical Twilight
Astronomical Twilight
Moon
Length Of Visible Light
Length of Day
Tomorrow will be .
, % of the Moon is Illuminated

Today's Extremes

State Highs State Lows

Community

WunderPhotos

Upload Photos

1,789,893 photos uploaded!

WunderBlogs® & News

Nearby

Air Quality

  Air Quality AQ Index Pollutant
Not available.

Snow Depth

Station Depth Elevation

Earthquake Activity

City Distance Mag. Time & Date
Minimum magnitude displayed is 2.5.

Coastal Water Temperatures

Locus Calor

Nearby Weather Stations